• Join FlightAware (Why Join?)
  • Login
  • US Flag 
04:56AM EDT


 

Airport Tracker/Info


-or-


 

Live Flight TrackerFlight Track Log ✈ N54628 ✈ 29-Apr-2013 ✈ KOSU - KOSU

Flight Track Log - Related Links

Times and Time Zones

All times are in EDT time to prevent confusion due to time zone crossing. See the N54628 flight status page for this flight to view local times or setup timezone preferences in your user account.

Time Position Orientation Groundspeed Altitude Reporting Facility
EDT Latitude Longitude Course Direction KTS MPH feet Rate Location/Type
10:40AM 40.0769 -83.0794 264° West 72 83 1,100  Level Indianapolis Center
10:41AM 40.0753 -83.1011 264° West 69 79 1,700 600 Climbing Indianapolis Center
10:42AM 40.0756 -83.1144 272° West 73 84 2,000 540 Climbing Indianapolis Center
10:42AM 40.0778 -83.1258 284° West 76 87 2,300 540 Climbing Indianapolis Center
10:43AM 40.0894 -83.1222 13° North 80 92 2,600 480 Climbing Indianapolis Center
10:43AM 40.1017 -83.1150 24° Northeast 85 98 2,900 360 Climbing Indianapolis Center
10:44AM 40.1097 -83.1097 27° Northeast 80 92 3,000 60 Climbing Indianapolis Center
10:44AM 40.1269 -83.1097 360° North 96 110 3,000  Level Indianapolis Center
10:45AM 40.1364 -83.1069 13° North 88 101 3,000  Level Indianapolis Center
10:45AM 40.1522 -83.1100 352° North 92 106 3,000  Level Indianapolis Center
10:46AM 40.1631 -83.1086 North 92 106 3,000  Level Indianapolis Center
10:46AM 40.1769 -83.1131 346° North 95 109 3,000  Level Indianapolis Center
10:47AM 40.1894 -83.1144 355° North 94 108 3,000  Level Indianapolis Center
10:47AM 40.2058 -83.1217 341° North 94 108 3,000 -120 Level Indianapolis Center
10:48AM 40.2192 -83.1236 354° North 94 108 2,900  Descending Indianapolis Center
10:49AM 40.2325 -83.1278 347° North 95 109 3,000  Climbing Indianapolis Center
10:49AM 40.2450 -83.1292 355° North 94 108 2,900 -240 Descending Indianapolis Center
10:49AM 40.2461 -83.1456 275° West 90 104 2,800 -420 Descending Indianapolis Center
10:50AM 40.2431 -83.1622 256° West 94 108 2,500 -600 Descending Indianapolis Center
10:50AM 40.2397 -83.1778 254° West 92 106 2,200 -300 Descending Indianapolis Center
10:51AM 40.2381 -83.1958 263° West 94 108 2,200  Level Indianapolis Center
10:51AM 40.2353 -83.2100 256° West 89 102 2,200  Level Indianapolis Center
10:52AM 40.2339 -83.2261 264° West 89 102 2,200 -120 Level Indianapolis Center
10:52AM 40.2333 -83.2369 266° West 83 96 2,100 -120 Descending Indianapolis Center
10:53AM 40.2322 -83.2572 266° West 86 99 2,100 60 Level Indianapolis Center
10:53AM 40.2314 -83.2667 263° West 82 94 2,200 -240 Climbing Indianapolis Center
10:54AM 40.2306 -83.2864 267° West 83 96 1,900 -540 Descending Indianapolis Center
10:55AM 40.2289 -83.3019 262° West 81 93 1,600 -540 Descending Indianapolis Center
10:55AM 40.2283 -83.3142 267° West 80 92 1,400 -300 Descending Indianapolis Center
10:56AM 40.2250 -83.3261 250° West 68 78 1,300 -240 Descending Indianapolis Center
10:56AM 40.2256 -83.3392 273° West 72 83 1,200  Descending Indianapolis Center
10:58AM 40.2236 -83.3689 265° West 76 87 1,400 300 Climbing Indianapolis Center
10:58AM 40.2361 -83.3767 335° Northwest 86 99 1,900 600 Climbing Indianapolis Center
11:00AM 40.2611 -83.3714 North 78 90 2,700 480 Climbing Indianapolis Center
11:01AM 40.2600 -83.3331 92° East 101 116 3,000 180 Climbing Indianapolis Center
11:02AM 40.2478 -83.2900 110° East 103 119 3,100  Climbing Indianapolis Center
11:04AM 40.2181 -83.2161 118° Southeast 116 133 3,000 -60 Descending Indianapolis Center
11:05AM 40.2036 -83.1817 119° Southeast 114 131 3,000  Level Indianapolis Center
11:06AM 40.1919 -83.1419 111° Southeast 120 138 3,000  Level Indianapolis Center
11:07AM 40.1736 -83.1044 123° Southeast 118 136 3,000 60 Level Indianapolis Center
11:08AM 40.1586 -83.0672 118° Southeast 114 131 3,200  Climbing Indianapolis Center
11:09AM 40.1578 -83.0289 92° East 106 122 3,000 -120 Descending Indianapolis Center
11:10AM 40.1564 -82.9878 93° East 114 131 3,000  Level Indianapolis Center
11:11AM 40.1528 -82.9492 97° East 111 128 3,000  Level Indianapolis Center
11:12AM 40.1514 -82.9081 93° East 114 131 3,000  Level Indianapolis Center
11:13AM 40.1500 -82.8642 92° East 114 131 3,000  Level Indianapolis Center
11:14AM 40.1256 -82.8533 161° South 105 121 3,000 60 Level Indianapolis Center
11:14AM 40.1186 -82.8511 166° South 115 132 3,100 -120 Climbing Indianapolis Center
11:15AM 40.0967 -82.8500 178° South 107 123 2,900  Descending Indianapolis Center
11:15AM 40.0856 -82.8489 176° South 108 124 3,100 -240 Climbing Indianapolis Center
11:16AM 40.0825 -82.8731 261° West 82 94 2,700 -420 Descending Indianapolis Center
11:16AM 40.0836 -82.8792 283° West 95 109 2,700 -240 Level Indianapolis Center
11:17AM 40.0806 -82.9028 260° West 80 92 2,500 -120 Descending Indianapolis Center
11:17AM 40.0814 -82.9094 279° West 88 101 2,600  Climbing Indianapolis Center
11:18AM 40.0806 -82.9328 267° West 87 100 2,500  Descending Indianapolis Center
11:18AM 40.0819 -82.9406 283° West 86 99 2,600 -120 Climbing Indianapolis Center
11:19AM 40.0806 -82.9653 266° West 91 105 2,400 -300 Descending Indianapolis Center
11:19AM 40.0811 -82.9733 275° West 87 100 2,300 -600 Descending Indianapolis Center
11:20AM 40.0786 -82.9925 260° West 90 104 1,900 -540 Descending Indianapolis Center
11:20AM 40.0789 -83.0103 271° West 87 100 1,800 -420 Descending Indianapolis Center
11:21AM 40.0786 -83.0225 268° West 76 87 1,500 -420 Descending Indianapolis Center
11:21AM 40.0792 -83.0369 273° West 80 92 1,400 -360 Descending Indianapolis Center
11:22AM 40.0786 -83.0525 267° West 64 74 1,100 -240 Descending Indianapolis Center
11:22AM 40.0786 -83.0617 270° West 75 86 1,200 240 Climbing Indianapolis Center